Sexton Summit, Oregon
Current Conditions -  °F | °C
As of 4:45 AM on Monday 22 Dec 2014 (Local Time) from KSXT Reporting Station
Haze Haze  
Wind Chill: 45°   Ceiling: 400
Heat Index: 47°   Visibility: 1mi
Dew Point: 47°   Wind: 5mph
Humidity: 100%   Direction: NA
Pressure: 30.3"   Gusts: NA
Location:  42.61°N, 123.36°W
Report Text: KSXT 221245Z AUTO VRB04KT 1SM BR VV004 08/08 A3030 RMK AO2 RAE1157B28E40 P0000 T00830083
Loading
Personal Weather Stations






























Interactive Weather Map New forecast layout! Learn more

10-Day Weather Forecast

Advertisements
Track Severe Weather on mobile